Volk Field
KVOK : now visible

Airfield :











YOU CAN JOIN US ON...

 
LOGIN :

Register | Disclaimer

   EN    FR    IT 

 









Legend :    VFR   Marginal VFR   IFR   Intensive IFR   Very Intensive IFR
Visi :
Ceiling :
>= 8 km
>= 3000ft
5 to 8 km
1000 to 3000 ft
1500m to 5 km
500 to 1000 ft
800 to 1500m
200 to 500 ft
< 800m
< 200 ft
Symbols :   Thunderstorms  Fog  Heavy snow  Heavy precipitations  Wind > 20 kt







- Airport Elevation : 912 ft


KVOK - Volk Field

CURRENT METAR :
  • 192222Z AUTO 30010KT 10SM SCT009 BKN014 11/11 A2964 RMK AO2 RAE03RAB09E22 SLP043

EXPIRED METARs :
  • 192209Z AUTO 31009KT 9SM -RA SCT009 BKN016 BKN034 11/11 A2963 RMK AO2 RAE03RAB09 SLP040
  • 192156Z AUTO 30009KT 10SM -RA SCT009 BKN012 10/10 A2962 RMK AO2 DZE2012RAB2012E2023DZB2023E2026DZB2036E2052RAB2052E22DZB22E23 RAB23E35DZB35E36DZB43E53RAB53 SLP037 P0001 T01040104
  • 192143Z AUTO 29008KT 10SM -DZ FEW010 BKN014 11/11 A2961 RMK AO2 DZE2012RAB2012E2023DZB2023E2026DZB2036E2052RAB2052E22DZB22E23 RAB23E35DZB35E36DZB43 SLP033
  • 192046Z AUTO 31007KT 3SM -DZ BR FEW007 OVC012 11/11 A2958 RMK AO2 DZE12RAB12E23DZB23E26DZB36 SLP023
  • 191956Z 36005KT 4SM -DZ BR OVC007 10/10 A2956 RMK AO2A SLP016

Expired Forecast.
KZAU FIR / North America



MET'MAP, your aeronautical weather chart ! - Copyright ORBIFLY December 2007 - Disclaimer

ORBIFLY MET'MAP TEAM :

Programming & Development : Alexandra Zaïnal
Concept & Development : Baudouin d'Aumeries
Co-Development & Prog : Marc-Olivier Méhu
Technical & hardware support : Manuel Goepfert

Contact : metmap@orbifly.com




SOURCES & CREDITS :

   NOAA       Earth
Advisory